sensor_id;sensor_type;location;lat;lon;timestamp;pressure;altitude;pressure_sealevel;temperature;humidity
42705;BME280;28342;42.594;23.414;2023-05-01T00:02:07;94470.72;;;10.20;80.81
42705;BME280;28342;42.594;23.414;2023-05-01T00:04:33;94479.75;;;10.19;80.88
42705;BME280;28342;42.594;23.414;2023-05-01T00:06:59;94472.00;;;10.23;80.44
42705;BME280;28342;42.594;23.414;2023-05-01T00:09:27;94469.03;;;10.24;80.49
42705;BME280;28342;42.594;23.414;2023-05-01T00:11:52;94485.72;;;10.25;80.51
42705;BME280;28342;42.594;23.414;2023-05-01T00:14:18;94483.97;;;10.20;80.82
42705;BME280;28342;42.594;23.414;2023-05-01T00:16:43;94479.34;;;10.03;80.48
42705;BME280;28342;42.594;23.414;2023-05-01T00:19:11;94480.75;;;10.01;80.33
42705;BME280;28342;42.594;23.414;2023-05-01T00:21:37;94488.84;;;9.96;81.41
42705;BME280;28342;42.594;23.414;2023-05-01T00:24:03;94473.78;;;9.82;81.68
42705;BME280;28342;42.594;23.414;2023-05-01T00:26:28;94479.44;;;9.89;81.37
42705;BME280;28342;42.594;23.414;2023-05-01T00:28:56;94486.28;;;9.91;81.54
42705;BME280;28342;42.594;23.414;2023-05-01T00:31:23;94491.03;;;9.80;82.05
42705;BME280;28342;42.594;23.414;2023-05-01T00:33:49;94495.22;;;9.72;81.80
42705;BME280;28342;42.594;23.414;2023-05-01T00:36:14;94487.75;;;9.74;81.30
42705;BME280;28342;42.594;23.414;2023-05-01T00:38:39;94498.34;;;9.74;81.95
42705;BME280;28342;42.594;23.414;2023-05-01T00:41:07;94490.03;;;9.45;81.34
42705;BME280;28342;42.594;23.414;2023-05-01T00:43:32;94497.13;;;9.36;83.10
42705;BME280;28342;42.594;23.414;2023-05-01T00:45:58;94501.41;;;9.45;82.45
42705;BME280;28342;42.594;23.414;2023-05-01T00:48:24;94494.88;;;9.29;83.23
42705;BME280;28342;42.594;23.414;2023-05-01T00:50:50;94490.97;;;9.26;83.51
42705;BME280;28342;42.594;23.414;2023-05-01T00:53:17;94463.69;;;9.04;83.72
42705;BME280;28342;42.594;23.414;2023-05-01T00:55:44;94501.38;;;9.23;83.87
42705;BME280;28342;42.594;23.414;2023-05-01T00:58:10;94484.16;;;8.98;84.15
42705;BME280;28342;42.594;23.414;2023-05-01T01:00:38;94510.97;;;9.19;84.33
42705;BME280;28342;42.594;23.414;2023-05-01T01:03:04;94502.84;;;9.15;83.67
42705;BME280;28342;42.594;23.414;2023-05-01T01:05:31;94508.84;;;9.07;83.83
42705;BME280;28342;42.594;23.414;2023-05-01T01:08:20;94510.91;;;9.10;85.10
42705;BME280;28342;42.594;23.414;2023-05-01T01:11:13;94514.50;;;9.14;84.52
42705;BME280;28342;42.594;23.414;2023-05-01T01:14:20;94506.72;;;8.82;85.14
42705;BME280;28342;42.594;23.414;2023-05-01T01:16:57;94520.72;;;8.82;85.72
42705;BME280;28342;42.594;23.414;2023-05-01T01:22:19;94521.50;;;8.55;87.02
42705;BME280;28342;42.594;23.414;2023-05-01T01:24:53;94523.06;;;8.56;87.41
42705;BME280;28342;42.594;23.414;2023-05-01T01:30:34;94529.91;;;8.57;87.17
42705;BME280;28342;42.594;23.414;2023-05-01T01:36:05;94508.00;;;8.43;87.41
42705;BME280;28342;42.594;23.414;2023-05-01T01:38:41;94519.38;;;8.44;87.89
42705;BME280;28342;42.594;23.414;2023-05-01T01:41:12;94521.22;;;8.43;88.46
42705;BME280;28342;42.594;23.414;2023-05-01T01:43:45;94523.22;;;8.32;89.24
42705;BME280;28342;42.594;23.414;2023-05-01T01:46:11;94525.16;;;8.27;89.83
42705;BME280;28342;42.594;23.414;2023-05-01T01:48:41;94499.53;;;8.14;89.92
42705;BME280;28342;42.594;23.414;2023-05-01T01:51:12;94525.88;;;8.32;89.17
42705;BME280;28342;42.594;23.414;2023-05-01T01:53:39;94517.56;;;8.39;88.50
42705;BME280;28342;42.594;23.414;2023-05-01T01:56:06;94515.03;;;8.34;89.29
42705;BME280;28342;42.594;23.414;2023-05-01T01:58:35;94524.44;;;8.40;88.70
42705;BME280;28342;42.594;23.414;2023-05-01T02:01:02;94512.28;;;8.39;87.75
42705;BME280;28342;42.594;23.414;2023-05-01T02:03:29;94519.72;;;8.37;87.00
42705;BME280;28342;42.594;23.414;2023-05-01T02:05:56;94506.66;;;8.27;87.79
42705;BME280;28342;42.594;23.414;2023-05-01T02:08:24;94516.19;;;8.28;88.44
42705;BME280;28342;42.594;23.414;2023-05-01T02:10:51;94513.66;;;8.36;87.30
42705;BME280;28342;42.594;23.414;2023-05-01T02:13:22;94519.72;;;8.37;87.72
42705;BME280;28342;42.594;23.414;2023-05-01T02:15:49;94510.31;;;8.31;87.88
42705;BME280;28342;42.594;23.414;2023-05-01T02:18:15;94512.88;;;8.36;87.90
42705;BME280;28342;42.594;23.414;2023-05-01T02:20:42;94511.50;;;8.38;87.41
42705;BME280;28342;42.594;23.414;2023-05-01T02:23:09;94487.88;;;8.15;87.27
42705;BME280;28342;42.594;23.414;2023-05-01T02:25:37;94507.66;;;8.31;87.69
42705;BME280;28342;42.594;23.414;2023-05-01T02:28:11;94511.69;;;8.42;87.10
42705;BME280;28342;42.594;23.414;2023-05-01T02:30:37;94503.66;;;8.33;86.90
42705;BME280;28342;42.594;23.414;2023-05-01T02:33:05;94507.19;;;8.29;87.17
42705;BME280;28342;42.594;23.414;2023-05-01T02:35:31;94512.25;;;8.25;87.35
42705;BME280;28342;42.594;23.414;2023-05-01T02:37:56;94509.09;;;8.23;87.52
42705;BME280;28342;42.594;23.414;2023-05-01T02:40:22;94505.00;;;8.17;87.82
42705;BME280;28342;42.594;23.414;2023-05-01T02:42:48;94503.13;;;8.04;87.96
42705;BME280;28342;42.594;23.414;2023-05-01T02:45:20;94461.97;;;7.70;88.76
42705;BME280;28342;42.594;23.414;2023-05-01T02:47:50;94468.41;;;7.78;89.17
42705;BME280;28342;42.594;23.414;2023-05-01T02:50:16;94508.09;;;8.05;88.59
42705;BME280;28342;42.594;23.414;2023-05-01T02:52:43;94510.16;;;8.08;88.16
42705;BME280;28342;42.594;23.414;2023-05-01T02:55:09;94511.34;;;8.02;88.50
42705;BME280;28342;42.594;23.414;2023-05-01T02:57:34;94507.63;;;8.03;88.19
42705;BME280;28342;42.594;23.414;2023-05-01T03:00:00;94516.13;;;8.00;88.18
42705;BME280;28342;42.594;23.414;2023-05-01T03:02:25;94497.84;;;7.71;88.45
42705;BME280;28342;42.594;23.414;2023-05-01T03:04:51;94517.06;;;7.91;88.60
42705;BME280;28342;42.594;23.414;2023-05-01T03:07:16;94514.91;;;7.93;88.31
42705;BME280;28342;42.594;23.414;2023-05-01T03:09:42;94521.31;;;8.05;87.76
42705;BME280;28342;42.594;23.414;2023-05-01T03:12:07;94513.84;;;7.94;87.54
42705;BME280;28342;42.594;23.414;2023-05-01T03:14:33;94523.13;;;7.91;87.52
42705;BME280;28342;42.594;23.414;2023-05-01T03:16:59;94518.81;;;7.82;87.77
42705;BME280;28342;42.594;23.414;2023-05-01T03:19:24;94526.06;;;7.90;87.57
42705;BME280;28342;42.594;23.414;2023-05-01T03:21:50;94529.13;;;7.97;87.32
42705;BME280;28342;42.594;23.414;2023-05-01T03:24:15;94528.00;;;7.84;87.92
42705;BME280;28342;42.594;23.414;2023-05-01T03:26:41;94528.00;;;7.84;87.88
42705;BME280;28342;42.594;23.414;2023-05-01T03:29:06;94523.47;;;7.71;88.82
42705;BME280;28342;42.594;23.414;2023-05-01T03:31:32;94535.22;;;7.78;88.81
42705;BME280;28342;42.594;23.414;2023-05-01T03:33:58;94539.16;;;7.81;88.53
42705;BME280;28342;42.594;23.414;2023-05-01T03:36:23;94528.59;;;7.81;88.89
42705;BME280;28342;42.594;23.414;2023-05-01T03:38:49;94535.69;;;7.80;88.71
42705;BME280;28342;42.594;23.414;2023-05-01T03:41:15;94519.06;;;7.66;88.09
42705;BME280;28342;42.594;23.414;2023-05-01T03:43:40;94542.16;;;7.56;89.02
42705;BME280;28342;42.594;23.414;2023-05-01T03:46:06;94543.28;;;7.49;89.41
42705;BME280;28342;42.594;23.414;2023-05-01T03:48:31;94539.03;;;7.54;89.35
42705;BME280;28342;42.594;23.414;2023-05-01T03:50:57;94552.22;;;7.54;89.72
42705;BME280;28342;42.594;23.414;2023-05-01T03:53:22;94558.59;;;7.53;90.18
42705;BME280;28342;42.594;23.414;2023-05-01T03:55:48;94554.28;;;7.57;89.43
42705;BME280;28342;42.594;23.414;2023-05-01T03:58:13;94560.72;;;7.51;89.50
42705;BME280;28342;42.594;23.414;2023-05-01T04:00:39;94539.19;;;7.43;89.18
42705;BME280;28342;42.594;23.414;2023-05-01T04:03:05;94552.28;;;7.48;89.68
42705;BME280;28342;42.594;23.414;2023-05-01T04:05:31;94542.16;;;7.56;89.23
42705;BME280;28342;42.594;23.414;2023-05-01T04:07:56;94552.16;;;7.59;89.07
42705;BME280;28342;42.594;23.414;2023-05-01T04:10:22;94535.25;;;7.41;90.60
42705;BME280;28342;42.594;23.414;2023-05-01T04:12:47;94556.50;;;7.49;90.37
42705;BME280;28342;42.594;23.414;2023-05-01T04:15:13;94564.28;;;7.60;90.25
42705;BME280;28342;42.594;23.414;2023-05-01T04:17:39;94546.38;;;7.57;89.95
42705;BME280;28342;42.594;23.414;2023-05-01T04:20:05;94560.28;;;7.62;89.39
42705;BME280;28342;42.594;23.414;2023-05-01T04:22:33;94559.94;;;7.69;89.86
42705;BME280;28342;42.594;23.414;2023-05-01T04:24:59;94563.16;;;7.66;90.46
42705;BME280;28342;42.594;23.414;2023-05-01T04:27:25;94569.19;;;7.85;90.31
42705;BME280;28342;42.594;23.414;2023-05-01T04:29:50;94562.50;;;8.06;89.74
42705;BME280;28342;42.594;23.414;2023-05-01T04:32:16;94566.72;;;8.40;88.76
42705;BME280;28342;42.594;23.414;2023-05-01T04:34:42;94578.13;;;8.82;87.12
42705;BME280;28342;42.594;23.414;2023-05-01T04:37:08;94565.97;;;9.08;86.19
42705;BME280;28342;42.594;23.414;2023-05-01T04:39:34;94574.16;;;9.34;84.87
42705;BME280;28342;42.594;23.414;2023-05-01T04:42:00;94576.47;;;9.63;84.19
42705;BME280;28342;42.594;23.414;2023-05-01T04:44:26;94576.31;;;9.82;81.43
42705;BME280;28342;42.594;23.414;2023-05-01T04:46:51;94558.44;;;9.87;80.51
42705;BME280;28342;42.594;23.414;2023-05-01T04:49:17;94570.06;;;10.23;79.51
42705;BME280;28342;42.594;23.414;2023-05-01T04:51:42;94578.81;;;10.23;80.11
42705;BME280;28342;42.594;23.414;2023-05-01T04:54:08;94566.66;;;10.22;79.49
42705;BME280;28342;42.594;23.414;2023-05-01T04:56:33;94568.44;;;10.13;79.66
42705;BME280;28342;42.594;23.414;2023-05-01T04:58:58;94578.66;;;10.06;79.31
42705;BME280;28342;42.594;23.414;2023-05-01T05:01:24;94569.28;;;10.00;82.61
42705;BME280;28342;42.594;23.414;2023-05-01T05:03:49;94571.66;;;10.10;81.85
42705;BME280;28342;42.594;23.414;2023-05-01T05:06:15;94573.91;;;10.16;82.14
42705;BME280;28342;42.594;23.414;2023-05-01T05:08:40;94579.91;;;10.22;82.55
42705;BME280;28342;42.594;23.414;2023-05-01T05:11:06;94570.41;;;10.07;80.43
42705;BME280;28342;42.594;23.414;2023-05-01T05:13:31;94576.50;;;10.08;80.39
42705;BME280;28342;42.594;23.414;2023-05-01T05:15:57;94591.75;;;10.25;81.49
42705;BME280;28342;42.594;23.414;2023-05-01T05:18:22;94575.69;;;10.21;82.45
42705;BME280;28342;42.594;23.414;2023-05-01T05:20:48;94588.56;;;10.36;82.09
42705;BME280;28342;42.594;23.414;2023-05-01T05:23:13;94587.94;;;10.39;81.83
42705;BME280;28342;42.594;23.414;2023-05-01T05:25:52;94593.25;;;10.62;80.86
42705;BME280;28342;42.594;23.414;2023-05-01T05:28:17;94600.31;;;10.44;80.88
42705;BME280;28342;42.594;23.414;2023-05-01T05:30:42;94598.16;;;10.46;82.17
42705;BME280;28342;42.594;23.414;2023-05-01T05:33:08;94607.44;;;10.66;82.44
42705;BME280;28342;42.594;23.414;2023-05-01T05:35:33;94600.91;;;10.72;80.50
42705;BME280;28342;42.594;23.414;2023-05-01T05:37:59;94614.06;;;10.77;80.06
42705;BME280;28342;42.594;23.414;2023-05-01T05:40:24;94606.72;;;10.74;79.98
42705;BME280;28342;42.594;23.414;2023-05-01T05:42:50;94610.97;;;10.84;81.75
42705;BME280;28342;42.594;23.414;2023-05-01T05:45:15;94605.63;;;10.75;79.74
42705;BME280;28342;42.594;23.414;2023-05-01T05:47:41;94614.28;;;10.89;80.21
42705;BME280;28342;42.594;23.414;2023-05-01T05:50:06;94602.44;;;10.95;83.09
42705;BME280;28342;42.594;23.414;2023-05-01T05:52:33;94611.13;;;11.18;81.41
42705;BME280;28342;42.594;23.414;2023-05-01T05:54:59;94603.78;;;11.24;79.54
42705;BME280;28342;42.594;23.414;2023-05-01T05:57:25;94617.69;;;11.21;77.47
42705;BME280;28342;42.594;23.414;2023-05-01T05:59:50;94619.91;;;11.36;77.92
42705;BME280;28342;42.594;23.414;2023-05-01T06:02:19;94616.50;;;11.44;78.66
42705;BME280;28342;42.594;23.414;2023-05-01T06:04:44;94603.22;;;11.35;79.55
42705;BME280;28342;42.594;23.414;2023-05-01T06:07:10;94621.84;;;11.61;79.15
42705;BME280;28342;42.594;23.414;2023-05-01T06:09:35;94597.31;;;11.73;79.72
42705;BME280;28342;42.594;23.414;2023-05-01T06:12:01;94613.31;;;11.90;78.44
42705;BME280;28342;42.594;23.414;2023-05-01T06:14:29;94633.78;;;12.07;78.05
42705;BME280;28342;42.594;23.414;2023-05-01T06:16:55;94627.88;;;12.19;76.80
42705;BME280;28342;42.594;23.414;2023-05-01T06:19:20;94611.28;;;12.31;77.16
42705;BME280;28342;42.594;23.414;2023-05-01T06:21:46;94604.06;;;12.31;76.35
42705;BME280;28342;42.594;23.414;2023-05-01T06:24:11;94627.84;;;12.45;75.60
42705;BME280;28342;42.594;23.414;2023-05-01T06:26:37;94634.69;;;12.63;75.17
42705;BME280;28342;42.594;23.414;2023-05-01T06:29:02;94629.84;;;12.74;75.93
42705;BME280;28342;42.594;23.414;2023-05-01T06:31:28;94630.44;;;12.79;75.27
42705;BME280;28342;42.594;23.414;2023-05-01T06:33:53;94632.59;;;12.95;75.71
42705;BME280;28342;42.594;23.414;2023-05-01T06:36:19;94625.44;;;13.16;76.73
42705;BME280;28342;42.594;23.414;2023-05-01T06:38:44;94633.56;;;13.37;74.82
42705;BME280;28342;42.594;23.414;2023-05-01T06:41:14;94633.91;;;13.56;73.84
42705;BME280;28342;42.594;23.414;2023-05-01T06:43:40;94627.50;;;13.78;75.68
42705;BME280;28342;42.594;23.414;2023-05-01T06:46:05;94634.22;;;14.05;74.54
42705;BME280;28342;42.594;23.414;2023-05-01T06:48:31;94618.88;;;14.23;71.40
42705;BME280;28342;42.594;23.414;2023-05-01T06:50:56;94640.66;;;14.67;71.02
42705;BME280;28342;42.594;23.414;2023-05-01T06:53:22;94630.38;;;14.89;70.13
42705;BME280;28342;42.594;23.414;2023-05-01T06:55:47;94633.78;;;15.35;69.54
42705;BME280;28342;42.594;23.414;2023-05-01T06:58:13;94637.69;;;15.74;67.93
42705;BME280;28342;42.594;23.414;2023-05-01T07:00:38;94625.84;;;16.00;66.36
42705;BME280;28342;42.594;23.414;2023-05-01T07:03:03;94625.44;;;16.54;66.92
42705;BME280;28342;42.594;23.414;2023-05-01T07:05:29;94631.53;;;16.94;63.70
42705;BME280;28342;42.594;23.414;2023-05-01T07:07:54;94641.78;;;17.36;61.96
42705;BME280;28342;42.594;23.414;2023-05-01T07:10:20;94634.41;;;17.65;60.58
42705;BME280;28342;42.594;23.414;2023-05-01T07:12:45;94628.31;;;17.99;59.52
42705;BME280;28342;42.594;23.414;2023-05-01T07:15:11;94643.59;;;18.34;58.44
42705;BME280;28342;42.594;23.414;2023-05-01T07:17:39;94641.38;;;18.74;55.49
42705;BME280;28342;42.594;23.414;2023-05-01T07:20:05;94644.88;;;18.98;56.65
42705;BME280;28342;42.594;23.414;2023-05-01T07:22:31;94645.47;;;19.30;55.03
42705;BME280;28342;42.594;23.414;2023-05-01T07:24:56;94635.81;;;19.52;53.33
42705;BME280;28342;42.594;23.414;2023-05-01T07:27:21;94642.41;;;19.77;53.98
42705;BME280;28342;42.594;23.414;2023-05-01T07:29:47;94643.22;;;19.81;50.37
42705;BME280;28342;42.594;23.414;2023-05-01T07:32:12;94647.00;;;19.77;51.11
42705;BME280;28342;42.594;23.414;2023-05-01T07:34:38;94652.81;;;19.56;53.17
42705;BME280;28342;42.594;23.414;2023-05-01T07:37:03;94658.25;;;19.59;49.21
42705;BME280;28342;42.594;23.414;2023-05-01T07:39:29;94652.44;;;19.80;54.06
42705;BME280;28342;42.594;23.414;2023-05-01T07:41:58;94652.13;;;19.85;51.98
42705;BME280;28342;42.594;23.414;2023-05-01T07:44:23;94644.38;;;20.07;54.08
42705;BME280;28342;42.594;23.414;2023-05-01T07:46:49;94642.97;;;20.46;51.79
42705;BME280;28342;42.594;23.414;2023-05-01T07:49:14;94654.59;;;20.84;51.85
42705;BME280;28342;42.594;23.414;2023-05-01T07:51:40;94655.44;;;20.92;48.10
42705;BME280;28342;42.594;23.414;2023-05-01T07:54:06;94662.19;;;20.75;48.54
42705;BME280;28342;42.594;23.414;2023-05-01T07:56:31;94640.19;;;21.06;49.94
42705;BME280;28342;42.594;23.414;2023-05-01T07:58:57;94651.91;;;21.21;50.97
42705;BME280;28342;42.594;23.414;2023-05-01T08:01:23;94658.00;;;21.14;49.01
42705;BME280;28342;42.594;23.414;2023-05-01T08:03:48;94651.97;;;20.57;50.31
42705;BME280;28342;42.594;23.414;2023-05-01T08:06:14;94664.06;;;20.41;52.12
42705;BME280;28342;42.594;23.414;2023-05-01T08:08:39;94655.25;;;20.74;51.67
42705;BME280;28342;42.594;23.414;2023-05-01T08:11:05;94660.13;;;20.98;50.77
42705;BME280;28342;42.594;23.414;2023-05-01T08:13:30;94655.88;;;21.31;49.18
42705;BME280;28342;42.594;23.414;2023-05-01T08:16:02;94645.91;;;21.35;48.91
42705;BME280;28342;42.594;23.414;2023-05-01T08:18:28;94650.44;;;21.71;51.84
42705;BME280;28342;42.594;23.414;2023-05-01T08:20:53;94643.66;;;21.92;50.63
42705;BME280;28342;42.594;23.414;2023-05-01T08:23:19;94647.16;;;21.96;48.16
42705;BME280;28342;42.594;23.414;2023-05-01T08:25:45;94659.63;;;22.08;47.53
42705;BME280;28342;42.594;23.414;2023-05-01T08:28:16;94656.28;;;22.35;45.74
42705;BME280;28342;42.594;23.414;2023-05-01T08:30:42;94656.72;;;22.45;42.91
42705;BME280;28342;42.594;23.414;2023-05-01T08:33:08;94663.03;;;22.70;46.30
42705;BME280;28342;42.594;23.414;2023-05-01T08:35:34;94654.16;;;22.80;39.75
42705;BME280;28342;42.594;23.414;2023-05-01T08:37:59;94653.25;;;22.48;40.54
42705;BME280;28342;42.594;23.414;2023-05-01T08:40:25;94640.56;;;22.59;44.07
42705;BME280;28342;42.594;23.414;2023-05-01T08:42:51;94639.94;;;22.87;41.41
42705;BME280;28342;42.594;23.414;2023-05-01T08:45:19;94649.25;;;23.11;41.91
42705;BME280;28342;42.594;23.414;2023-05-01T08:47:46;94648.47;;;23.00;39.65
42705;BME280;28342;42.594;23.414;2023-05-01T08:50:12;94634.72;;;22.46;41.81
42705;BME280;28342;42.594;23.414;2023-05-01T08:52:42;94646.53;;;22.20;41.50
42705;BME280;28342;42.594;23.414;2023-05-01T08:55:14;94640.09;;;22.39;40.25
42705;BME280;28342;42.594;23.414;2023-05-01T08:57:46;94645.78;;;22.20;41.47
42705;BME280;28342;42.594;23.414;2023-05-01T09:00:18;94638.81;;;22.15;42.01
42705;BME280;28342;42.594;23.414;2023-05-01T09:02:45;94629.69;;;22.38;40.56
42705;BME280;28342;42.594;23.414;2023-05-01T09:05:11;94625.50;;;22.58;37.60
42705;BME280;28342;42.594;23.414;2023-05-01T09:07:37;94627.88;;;22.77;39.30
42705;BME280;28342;42.594;23.414;2023-05-01T09:10:05;94639.19;;;22.97;39.54
42705;BME280;28342;42.594;23.414;2023-05-01T09:12:32;94622.22;;;23.11;38.69
42705;BME280;28342;42.594;23.414;2023-05-01T09:15:01;94638.56;;;23.61;38.62
42705;BME280;28342;42.594;23.414;2023-05-01T09:17:27;94627.69;;;23.68;37.49
42705;BME280;28342;42.594;23.414;2023-05-01T09:19:56;94619.19;;;23.80;38.11
42705;BME280;28342;42.594;23.414;2023-05-01T09:22:22;94639.31;;;23.93;35.41
42705;BME280;28342;42.594;23.414;2023-05-01T09:24:48;94634.66;;;23.87;37.44
42705;BME280;28342;42.594;23.414;2023-05-01T09:27:14;94638.09;;;23.23;35.60
42705;BME280;28342;42.594;23.414;2023-05-01T09:29:41;94609.06;;;22.99;38.45
42705;BME280;28342;42.594;23.414;2023-05-01T09:32:25;94641.97;;;22.28;39.85
42705;BME280;28342;42.594;23.414;2023-05-01T09:35:08;94620.16;;;21.96;40.45
42705;BME280;28342;42.594;23.414;2023-05-01T09:37:33;94634.75;;;21.88;39.26
42705;BME280;28342;42.594;23.414;2023-05-01T09:40:12;94638.63;;;21.90;39.73
42705;BME280;28342;42.594;23.414;2023-05-01T09:42:48;94637.91;;;21.97;43.08
42705;BME280;28342;42.594;23.414;2023-05-01T09:45:16;94633.47;;;22.29;43.40
42705;BME280;28342;42.594;23.414;2023-05-01T09:47:43;94640.84;;;22.36;42.85
42705;BME280;28342;42.594;23.414;2023-05-01T09:50:10;94615.16;;;22.01;42.36
42705;BME280;28342;42.594;23.414;2023-05-01T09:52:35;94639.84;;;22.00;43.19
42705;BME280;28342;42.594;23.414;2023-05-01T09:55:15;94635.47;;;21.77;41.87
42705;BME280;28342;42.594;23.414;2023-05-01T09:57:41;94619.38;;;21.99;40.96
42705;BME280;28342;42.594;23.414;2023-05-01T10:00:12;94633.16;;;22.42;41.96
42705;BME280;28342;42.594;23.414;2023-05-01T10:02:40;94603.13;;;22.61;37.23
42705;BME280;28342;42.594;23.414;2023-05-01T10:05:07;94629.22;;;23.40;43.17
42705;BME280;28342;42.594;23.414;2023-05-01T10:07:33;94630.00;;;24.01;39.54
42705;BME280;28342;42.594;23.414;2023-05-01T10:10:15;94623.75;;;24.40;37.99
42705;BME280;28342;42.594;23.414;2023-05-01T10:12:40;94635.25;;;24.65;36.58
42705;BME280;28342;42.594;23.414;2023-05-01T10:15:06;94623.00;;;24.36;37.25
42705;BME280;28342;42.594;23.414;2023-05-01T10:17:33;94628.34;;;24.57;36.47
42705;BME280;28342;42.594;23.414;2023-05-01T10:19:59;94631.44;;;24.56;35.75
42705;BME280;28342;42.594;23.414;2023-05-01T10:22:25;94620.72;;;23.84;34.51
42705;BME280;28342;42.594;23.414;2023-05-01T10:24:50;94621.13;;;23.90;36.70
42705;BME280;28342;42.594;23.414;2023-05-01T10:27:17;94606.00;;;23.53;38.76
42705;BME280;28342;42.594;23.414;2023-05-01T10:29:45;94627.66;;;23.53;37.80
42705;BME280;28342;42.594;23.414;2023-05-01T10:32:12;94631.50;;;24.24;37.14
42705;BME280;28342;42.594;23.414;2023-05-01T10:34:42;94628.44;;;23.36;36.25
42705;BME280;28342;42.594;23.414;2023-05-01T10:37:20;94624.59;;;23.51;37.89
42705;BME280;28342;42.594;23.414;2023-05-01T10:39:47;94636.59;;;23.86;35.75
42705;BME280;28342;42.594;23.414;2023-05-01T10:42:12;94620.41;;;22.39;37.08
42705;BME280;28342;42.594;23.414;2023-05-01T10:44:40;94628.22;;;22.61;36.57
42705;BME280;28342;42.594;23.414;2023-05-01T10:50:12;94615.28;;;23.31;38.33
42705;BME280;28342;42.594;23.414;2023-05-01T10:55:41;94629.91;;;22.94;40.50
42705;BME280;28342;42.594;23.414;2023-05-01T10:58:53;94605.44;;;22.55;39.89
42705;BME280;28342;42.594;23.414;2023-05-01T11:07:14;94634.78;;;22.64;38.39
42705;BME280;28342;42.594;23.414;2023-05-01T11:09:47;94626.44;;;22.14;39.12
42705;BME280;28342;42.594;23.414;2023-05-01T11:12:15;94625.84;;;21.84;41.76
42705;BME280;28342;42.594;23.414;2023-05-01T11:20:12;94641.66;;;22.40;42.39
42705;BME280;28342;42.594;23.414;2023-05-01T11:22:39;94641.28;;;22.42;41.81
42705;BME280;28342;42.594;23.414;2023-05-01T11:25:26;94626.69;;;22.64;38.94
42705;BME280;28342;42.594;23.414;2023-05-01T11:27:53;94623.50;;;22.37;41.25
42705;BME280;28342;42.594;23.414;2023-05-01T11:30:20;94629.41;;;21.98;40.27
42705;BME280;28342;42.594;23.414;2023-05-01T11:32:48;94646.75;;;22.56;38.86
42705;BME280;28342;42.594;23.414;2023-05-01T11:35:21;94644.44;;;22.65;39.28
42705;BME280;28342;42.594;23.414;2023-05-01T11:37:48;94637.25;;;22.14;37.51
42705;BME280;28342;42.594;23.414;2023-05-01T11:40:22;94648.13;;;22.21;38.90
42705;BME280;28342;42.594;23.414;2023-05-01T11:42:49;94641.75;;;21.96;37.91
42705;BME280;28342;42.594;23.414;2023-05-01T11:45:14;94642.66;;;22.14;37.41
42705;BME280;28342;42.594;23.414;2023-05-01T11:47:40;94636.56;;;22.24;36.00
42705;BME280;28342;42.594;23.414;2023-05-01T11:50:07;94637.75;;;21.75;39.15
42705;BME280;28342;42.594;23.414;2023-05-01T11:52:43;94642.38;;;21.75;39.90
42705;BME280;28342;42.594;23.414;2023-05-01T11:55:09;94632.78;;;21.85;41.14
42705;BME280;28342;42.594;23.414;2023-05-01T11:57:51;94631.19;;;21.29;42.96
42705;BME280;28342;42.594;23.414;2023-05-01T12:00:37;94647.16;;;20.74;43.09
42705;BME280;28342;42.594;23.414;2023-05-01T12:03:13;94646.81;;;20.19;45.49
42705;BME280;28342;42.594;23.414;2023-05-01T12:05:43;94654.72;;;20.35;45.56
42705;BME280;28342;42.594;23.414;2023-05-01T12:10:55;94651.59;;;20.03;50.10
42705;BME280;28342;42.594;23.414;2023-05-01T12:13:21;94660.19;;;20.12;51.33
42705;BME280;28342;42.594;23.414;2023-05-01T12:15:50;94663.22;;;20.07;51.72
42705;BME280;28342;42.594;23.414;2023-05-01T12:18:17;94672.78;;;20.04;52.36
42705;BME280;28342;42.594;23.414;2023-05-01T12:20:47;94670.00;;;19.74;50.09
42705;BME280;28342;42.594;23.414;2023-05-01T12:23:14;94671.00;;;19.89;51.02
42705;BME280;28342;42.594;23.414;2023-05-01T12:25:41;94669.19;;;19.70;49.91
42705;BME280;28342;42.594;23.414;2023-05-01T12:28:13;94654.09;;;19.42;48.72
42705;BME280;28342;42.594;23.414;2023-05-01T12:30:40;94661.00;;;19.63;50.93
42705;BME280;28342;42.594;23.414;2023-05-01T12:35:33;94659.78;;;19.60;53.52
42705;BME280;28342;42.594;23.414;2023-05-01T12:37:59;94647.19;;;19.19;54.01
42705;BME280;28342;42.594;23.414;2023-05-01T12:40:25;94638.59;;;19.32;52.51
42705;BME280;28342;42.594;23.414;2023-05-01T12:42:55;94644.78;;;19.36;52.69
42705;BME280;28342;42.594;23.414;2023-05-01T12:45:22;94654.28;;;19.07;52.43
42705;BME280;28342;42.594;23.414;2023-05-01T12:47:49;94648.00;;;19.00;52.55
42705;BME280;28342;42.594;23.414;2023-05-01T12:50:15;94637.38;;;19.07;53.06
42705;BME280;28342;42.594;23.414;2023-05-01T12:52:40;94640.53;;;19.13;51.84
42705;BME280;28342;42.594;23.414;2023-05-01T12:55:06;94642.47;;;19.35;50.72
42705;BME280;28342;42.594;23.414;2023-05-01T12:57:33;94643.34;;;19.20;49.58
42705;BME280;28342;42.594;23.414;2023-05-01T13:00:00;94654.34;;;19.34;52.04
42705;BME280;28342;42.594;23.414;2023-05-01T13:02:30;94639.34;;;19.33;47.90
42705;BME280;28342;42.594;23.414;2023-05-01T13:05:07;94644.88;;;19.44;47.89
42705;BME280;28342;42.594;23.414;2023-05-01T13:07:34;94645.16;;;19.58;47.35
42705;BME280;28342;42.594;23.414;2023-05-01T13:10:00;94647.56;;;19.63;48.20
42705;BME280;28342;42.594;23.414;2023-05-01T13:12:28;94646.00;;;19.62;46.78
42705;BME280;28342;42.594;23.414;2023-05-01T13:14:54;94648.25;;;19.60;44.84
42705;BME280;28342;42.594;23.414;2023-05-01T13:17:30;94653.81;;;19.70;46.83
42705;BME280;28342;42.594;23.414;2023-05-01T13:20:03;94656.03;;;19.65;46.56
42705;BME280;28342;42.594;23.414;2023-05-01T13:22:36;94639.50;;;19.63;48.09
42705;BME280;28342;42.594;23.414;2023-05-01T13:25:17;94651.88;;;19.25;46.57
42705;BME280;28342;42.594;23.414;2023-05-01T13:27:48;94635.59;;;19.37;47.96